»·PEaware :: VH-DRS KLAS-KSBA

VH-DRS :: KLAS-KSBA

FLIGHT INFORMATION

Flight Status: Arrived
Operator: Privately registered:
Australia
More flights under this callsign
Pilot: Daniel S. (70)
Aircraft: FOKKER 100
(F100)
More flights by this aircraft type
Origin: KLAS McCarran Intl
United States
Destination: KSBA Santa Barbara Mun
United States
More flights between these airports :: More routes between these airports
Route: BOACH4 HEC PMD V386 FIM KWANG
File this flight plan on PilotEdge
Remarks: SEL / ADFK / V /
Altitude:
(Current/Filed)
31,000ft
Speed:
(Current/Filed)
347kts
Departed: 08-Oct-11 05:39 PM
Arrived: 08-Oct-11 06:32 PM
Distance/Time
Traveled:
250nm/0:53
Distance/Time
To Go:
Arrived

Flight Plot

Page will automatically refresh every two minutes.


Map Options




Map Legend


Flown Route
Filed Route
Departure Airport
Arrival Airport
Navaid (VOR, NDB)
Fix

Horizontal Profiles

Position Reports

Time Latitude Longitude Heading Altitude Ground
Speed
08-Oct-11 17:09 36.087299 -115.153116 184 2190ft 0kts
08-Oct-11 17:13 36.085502 -115.155190 104 2190ft 0kts
08-Oct-11 17:14 36.085502 -115.155190 104 2190ft 0kts
08-Oct-11 17:15 36.085502 -115.155190 104 2190ft 0kts
08-Oct-11 17:16 36.085502 -115.155190 104 2190ft 0kts
08-Oct-11 17:19 36.085502 -115.155190 104 2190ft 0kts
08-Oct-11 17:20 36.085502 -115.155190 104 2190ft 0kts
08-Oct-11 17:21 36.085502 -115.155190 104 2190ft 0kts
08-Oct-11 17:22 36.085502 -115.155190 104 2190ft 0kts
08-Oct-11 17:23 36.085502 -115.155190 104 2190ft 0kts
08-Oct-11 17:24 36.085502 -115.155190 104 2190ft 0kts
08-Oct-11 17:25 36.085502 -115.155190 104 2190ft 0kts
08-Oct-11 17:26 36.085559 -115.155455 104 2190ft 0kts
08-Oct-11 17:27 36.085419 -115.156036 32 2190ft 0kts
08-Oct-11 17:28 36.084919 -115.155859 334 2190ft 0kts
08-Oct-11 17:29 36.084919 -115.155859 334 2190ft 0kts
08-Oct-11 17:30 36.084923 -115.155862 334 2190ft 0kts
08-Oct-11 17:31 36.083869 -115.157538 232 2190ft 6kts
08-Oct-11 17:32 36.081455 -115.158254 179 2190ft 16kts
08-Oct-11 17:33 36.078356 -115.158279 194 2190ft 3kts
08-Oct-11 17:34 36.078063 -115.162692 260 2190ft 16kts
08-Oct-11 17:35 36.077490 -115.163408 205 2190ft 3kts
08-Oct-11 17:36 36.076418 -115.151064 90 2190ft 121kts
08-Oct-11 17:37 36.076665 -115.093486 91 3691ft 189kts
08-Oct-11 17:38 36.076121 -115.026426 90 5393ft 205kts
08-Oct-11 17:40 35.986492 -114.916412 177 7546ft 280kts
08-Oct-11 17:41 35.927770 -114.948366 218 9183ft 284kts
08-Oct-11 17:42 35.867226 -115.017838 224 10345ft 317kts
08-Oct-11 17:43 35.805530 -115.099250 230 11853ft 329kts
08-Oct-11 17:44 35.747265 -115.188638 231 13405ft 339kts
08-Oct-11 17:45 35.687182 -115.281253 230 14698ft 348kts
08-Oct-11 17:46 35.621530 -115.370827 227 16062ft 352kts
08-Oct-11 17:47 35.554001 -115.459975 227 17526ft 360kts
08-Oct-11 17:48 35.484819 -115.551462 227 18826ft 369kts
08-Oct-11 17:49 35.413578 -115.645703 227 20035ft 377kts
08-Oct-11 17:50 35.341108 -115.741536 227 20968ft 384kts
08-Oct-11 17:51 35.268231 -115.837905 227 22251ft 385kts
08-Oct-11 17:52 35.194146 -115.935982 227 23440ft 393kts
08-Oct-11 17:53 35.119083 -116.035632 227 24495ft 401kts
08-Oct-11 17:54 35.043207 -116.136490 227 25322ft 408kts
08-Oct-11 17:55 34.965360 -116.239783 227 26054ft 414kts
08-Oct-11 17:56 34.887577 -116.343306 227 27356ft 409kts
08-Oct-11 17:57 34.814572 -116.451717 243 28202ft 417kts
08-Oct-11 17:58 34.779484 -116.585903 254 29264ft 417kts
08-Oct-11 17:59 34.750994 -116.723516 256 30272ft 417kts
08-Oct-11 18:00 34.724191 -116.860638 256 31238ft 417kts
08-Oct-11 18:01 34.697890 -116.998444 256 31952ft 417kts
08-Oct-11 18:02 34.671950 -117.135982 256 31988ft 417kts
08-Oct-11 18:03 34.646131 -117.274025 256 31987ft 417kts
08-Oct-11 18:04 34.620655 -117.411154 256 31993ft 417kts
08-Oct-11 18:05 34.595402 -117.547925 257 31864ft 404kts
08-Oct-11 18:06 34.570443 -117.683654 257 31753ft 415kts
08-Oct-11 18:07 34.545575 -117.820074 257 31751ft 415kts
08-Oct-11 18:08 34.520641 -117.957506 257 31699ft 416kts
08-Oct-11 18:09 34.496607 -118.091231 257 29981ft 399kts
08-Oct-11 18:10 34.473372 -118.220382 257 27896ft 382kts
08-Oct-11 18:11 34.451098 -118.343911 257 25671ft 366kts
08-Oct-11 18:12 34.429949 -118.463466 257 23007ft 361kts
08-Oct-11 18:13 34.409459 -118.579829 257 20811ft 345kts
08-Oct-11 18:14 34.389552 -118.693470 258 18890ft 324kts
08-Oct-11 18:15 34.371418 -118.797439 258 17141ft 310kts
08-Oct-11 18:16 34.355985 -118.898771 263 15380ft 300kts
08-Oct-11 18:17 34.348173 -118.995982 264 12544ft 285kts
08-Oct-11 18:18 34.340858 -119.090364 264 8652ft 272kts
08-Oct-11 18:19 34.333984 -119.180537 264 6025ft 266kts
08-Oct-11 18:20 34.328461 -119.253773 264 5109ft 256kts
08-Oct-11 18:21 34.322002 -119.340088 264 4999ft 257kts
08-Oct-11 18:23 34.349374 -119.502328 303 4959ft 257kts
08-Oct-11 18:24 34.382293 -119.577675 283 3953ft 255kts
08-Oct-11 18:25 34.398408 -119.660725 283 2829ft 249kts
08-Oct-11 18:26 34.414973 -119.741076 291 1954ft 241kts
08-Oct-11 18:27 34.428731 -119.804071 269 590ft 146kts
08-Oct-11 18:28 34.427656 -119.845116 268 19ft 57kts
08-Oct-11 18:29 34.428041 -119.846070 56 19ft 0kts
08-Oct-11 18:30 34.428135 -119.845891 57 19ft 1kts
08-Oct-11 18:31 34.429404 -119.843444 59 19ft 15kts
08-Oct-11 18:32 34.430229 -119.841423 75 19ft 17kts

Navigation Log

Ident Type
Flight plan parsing failed, navigation log unavailable